createdAt,value
2018-07-20T00:00:06.457Z,74.98
2018-07-20T00:01:13.865Z,74.98
2018-07-20T00:02:21.271Z,75.09
2018-07-20T00:03:28.692Z,74.98
2018-07-20T00:04:36.141Z,74.29
2018-07-20T00:05:43.543Z,74.98
2018-07-20T00:06:50.947Z,75.09
2018-07-20T00:07:58.380Z,74.29
2018-07-20T00:09:05.848Z,74.98
2018-07-20T00:10:13.266Z,74.68
2018-07-20T00:11:20.676Z,74.38
2018-07-20T00:12:28.095Z,74.68
2018-07-20T00:13:35.501Z,74.58
2018-07-20T00:14:42.954Z,73.49
2018-07-20T00:15:50.361Z,74.55
2018-07-20T00:16:57.764Z,73.25
2018-07-20T00:18:05.172Z,72.99
2018-07-20T00:19:12.584Z,72.99
2018-07-20T00:20:20.055Z,73.79
2018-07-20T00:21:27.476Z,73.39
2018-07-20T00:22:34.900Z,74.29
2018-07-20T00:23:42.319Z,74.38
2018-07-20T00:24:49.729Z,74.08
2018-07-20T00:25:57.174Z,74.88
2018-07-20T00:27:04.598Z,74.29
2018-07-20T00:28:12.021Z,73.88
2018-07-20T00:29:19.446Z,74.88
2018-07-20T00:30:27.016Z,73.99
2018-07-20T00:31:34.332Z,74.68
2018-07-20T00:32:41.749Z,73.99
2018-07-20T00:33:49.158Z,74.58
2018-07-20T00:34:56.565Z,74.08
2018-07-20T00:36:04.018Z,74.32
2018-07-20T00:37:11.433Z,73.99
2018-07-20T00:38:18.854Z,73.99
2018-07-20T00:39:26.278Z,74.79
2018-07-20T00:40:33.694Z,73.82
2018-07-20T00:41:41.157Z,74.12
2018-07-20T00:42:48.575Z,74.88
2018-07-20T00:43:55.993Z,74.82
2018-07-20T00:45:03.407Z,74.12
2018-07-20T00:46:10.829Z,74.08
2018-07-20T00:47:18.288Z,74.08
2018-07-20T00:48:25.710Z,74.79
2018-07-20T00:49:33.134Z,74.19
2018-07-20T00:50:40.553Z,73.99
2018-07-20T00:51:48.007Z,74.98
2018-07-20T00:52:55.453Z,73.88
2018-07-20T00:54:02.874Z,74.68
2018-07-20T00:55:10.294Z,73.99
2018-07-20T00:56:18.188Z,73.99
2018-07-20T00:57:25.636Z,74.68
2018-07-20T00:58:33.046Z,74.68
2018-07-20T00:59:40.466Z,74.49
2018-07-20T01:00:47.874Z,73.99
2018-07-20T01:01:55.295Z,73.88
2018-07-20T01:03:02.752Z,74.58
2018-07-20T01:04:10.196Z,74.38
2018-07-20T01:05:17.600Z,73.39
2018-07-20T01:06:25.182Z,73.19
2018-07-20T01:07:32.589Z,72.62
2018-07-20T01:08:40.027Z,73.42
2018-07-20T01:09:47.435Z,74.19
2018-07-20T01:10:54.843Z,74.29
2018-07-20T01:12:02.285Z,75.09
2018-07-20T01:13:09.738Z,73.92
2018-07-20T01:14:17.141Z,74.02
2018-07-20T01:15:24.545Z,74.62
2018-07-20T01:16:31.950Z,74.22
2018-07-20T01:17:39.398Z,74.58
2018-07-20T01:18:46.807Z,74.62
2018-07-20T01:19:54.211Z,74.32
2018-07-20T01:21:01.620Z,74.72
2018-07-20T01:22:09.028Z,74.32
2018-07-20T01:23:16.476Z,74.72
2018-07-20T01:24:23.883Z,75.22
2018-07-20T01:25:31.282Z,74.42
2018-07-20T01:26:38.687Z,74.62
2018-07-20T01:27:46.130Z,74.82
2018-07-20T01:28:53.534Z,74.72
2018-07-20T01:30:00.944Z,74.02
2018-07-20T01:31:08.372Z,75.02
2018-07-20T01:32:15.797Z,74.12
2018-07-20T01:33:23.254Z,74.32
2018-07-20T01:34:30.677Z,74.42
2018-07-20T01:35:38.095Z,74.72
2018-07-20T01:36:45.507Z,74.22
2018-07-20T01:37:52.920Z,74.82
2018-07-20T01:39:00.384Z,74.22
2018-07-20T01:40:07.795Z,74.02
2018-07-20T01:41:15.218Z,74.22
2018-07-20T01:42:22.634Z,74.22
2018-07-20T01:43:30.052Z,74.22
2018-07-20T01:44:37.511Z,74.42
2018-07-20T01:45:44.935Z,74.02
2018-07-20T01:46:52.359Z,74.72
2018-07-20T01:47:59.780Z,73.92
2018-07-20T01:49:07.234Z,74.92
2018-07-20T01:50:14.653Z,74.12
2018-07-20T01:51:22.100Z,74.72
2018-07-20T01:52:29.522Z,74.12
2018-07-20T01:53:36.941Z,74.72
2018-07-20T01:54:44.350Z,74.12
2018-07-20T01:55:51.805Z,74.12
2018-07-20T01:56:59.228Z,74.72
2018-07-20T01:58:06.652Z,74.42
2018-07-20T01:59:14.069Z,73.92
2018-07-20T02:00:21.481Z,74.92
2018-07-20T02:01:28.941Z,74.12
2018-07-20T02:02:36.396Z,74.92
2018-07-20T02:03:43.810Z,74.02
2018-07-20T02:04:51.241Z,74.12
2018-07-20T02:05:58.661Z,74.92
2018-07-20T02:07:06.115Z,74.52
2018-07-20T02:08:13.532Z,73.52
2018-07-20T02:09:20.969Z,73.12
2018-07-20T02:10:28.380Z,73.02
2018-07-20T02:11:35.790Z,74.02
2018-07-20T02:12:43.198Z,74.72
2018-07-20T02:13:50.604Z,75.12
2018-07-20T02:14:58.045Z,74.82
2018-07-20T02:16:05.455Z,74.72
2018-07-20T02:17:12.855Z,74.72
2018-07-20T02:18:20.265Z,74.22
2018-07-20T02:19:27.714Z,74.22
2018-07-20T02:20:35.120Z,74.55
2018-07-20T02:21:42.533Z,74.52
2018-07-20T02:22:49.936Z,74.72
2018-07-20T02:23:57.374Z,74.66
2018-07-20T02:25:04.776Z,74.62
2018-07-20T02:26:12.180Z,74.82
2018-07-20T02:27:19.593Z,74.22
2018-07-20T02:28:27.032Z,74.32
2018-07-20T02:29:34.621Z,74.26
2018-07-20T02:30:41.892Z,74.46
2018-07-20T02:31:49.311Z,74.52
2018-07-20T02:32:56.719Z,74.52
2018-07-20T02:34:04.165Z,74.72
2018-07-20T02:35:11.658Z,74.92
2018-07-20T02:36:19.074Z,74.82
2018-07-20T02:37:26.489Z,74.92
2018-07-20T02:38:33.896Z,74.76
2018-07-20T02:39:41.304Z,75.12
2018-07-20T02:40:48.745Z,74.96
2018-07-20T02:41:56.151Z,74.92
2018-07-20T02:43:03.588Z,74.72
2018-07-20T02:44:11.002Z,74.42
2018-07-20T02:45:18.414Z,74.55
2018-07-20T02:46:26.171Z,74.52
2018-07-20T02:47:33.587Z,74.72
2018-07-20T02:48:41.004Z,74.72
2018-07-20T02:49:48.425Z,75.12
2018-07-20T02:50:55.855Z,74.22
2018-07-20T02:52:03.664Z,74.76
2018-07-20T02:53:11.074Z,74.52
2018-07-20T02:54:18.498Z,74.46
2018-07-20T02:55:25.920Z,73.96
2018-07-20T02:56:33.349Z,74.26
2018-07-20T02:57:40.806Z,74.05
2018-07-20T02:58:48.263Z,73.46
2018-07-20T02:59:55.686Z,74.26
2018-07-20T03:01:03.106Z,74.76
2018-07-20T03:02:10.527Z,73.96
2018-07-20T03:03:17.950Z,74.26
2018-07-20T03:04:25.415Z,74.55
2018-07-20T03:05:32.867Z,74.96
2018-07-20T03:06:40.275Z,75.26
2018-07-20T03:07:47.697Z,74.76
2018-07-20T03:08:55.194Z,74.66
2018-07-20T03:10:02.523Z,74.96
2018-07-20T03:11:09.977Z,74.66
2018-07-20T03:12:17.441Z,74.76
2018-07-20T03:13:24.862Z,74.85
2018-07-20T03:14:32.284Z,74.85
2018-07-20T03:15:39.701Z,74.85
2018-07-20T03:16:47.115Z,75.16
2018-07-20T03:17:54.572Z,74.76
2018-07-20T03:19:01.986Z,74.85
2018-07-20T03:20:09.392Z,75.05
2018-07-20T03:21:16.798Z,74.76
2018-07-20T03:22:24.235Z,74.76
2018-07-20T03:23:31.678Z,75.26
2018-07-20T03:24:39.079Z,74.85
2018-07-20T03:25:46.498Z,74.85
2018-07-20T03:26:53.950Z,74.85
2018-07-20T03:28:01.357Z,74.96
2018-07-20T03:29:08.776Z,75.05
2018-07-20T03:30:16.185Z,75.05
2018-07-20T03:31:23.589Z,75.26
2018-07-20T03:32:31.030Z,75.26
2018-07-20T03:33:38.447Z,74.66
2018-07-20T03:34:45.870Z,74.55
2018-07-20T03:35:53.312Z,75.16
2018-07-20T03:37:00.719Z,74.66
2018-07-20T03:38:08.121Z,75.05
2018-07-20T03:39:15.567Z,75.26
2018-07-20T03:40:22.969Z,74.96
2018-07-20T03:41:30.376Z,74.66
2018-07-20T03:42:37.823Z,75.26
2018-07-20T03:43:45.232Z,74.96
2018-07-20T03:44:52.639Z,74.96
2018-07-20T03:46:00.049Z,75.05
2018-07-20T03:47:07.456Z,74.96
2018-07-20T03:48:15.134Z,74.85
2018-07-20T03:49:22.578Z,74.96
2018-07-20T03:50:29.990Z,74.96
2018-07-20T03:51:37.399Z,74.85
2018-07-20T03:52:44.853Z,74.96
2018-07-20T03:53:52.242Z,74.85
2018-07-20T03:54:59.664Z,74.76
2018-07-20T03:56:07.082Z,74.85
2018-07-20T03:57:14.504Z,74.85
2018-07-20T03:58:21.956Z,74.96
2018-07-20T03:59:29.365Z,74.76
2018-07-20T04:00:36.772Z,74.96
2018-07-20T04:01:44.235Z,74.96
2018-07-20T04:02:51.658Z,74.96
2018-07-20T04:03:59.075Z,74.76
2018-07-20T04:05:06.491Z,75.05
2018-07-20T04:06:13.905Z,74.85
2018-07-20T04:07:21.373Z,74.85
2018-07-20T04:08:28.803Z,74.85
2018-07-20T04:09:36.226Z,74.96
2018-07-20T04:10:43.628Z,75.05
2018-07-20T04:11:51.040Z,74.85
2018-07-20T04:12:58.493Z,74.76
2018-07-20T04:14:05.900Z,74.85
2018-07-20T04:15:13.323Z,74.96
2018-07-20T04:16:20.749Z,74.89
2018-07-20T04:17:28.228Z,74.96
2018-07-20T04:18:35.648Z,74.99
2018-07-20T04:19:43.066Z,74.99
2018-07-20T04:20:50.483Z,75.79
2018-07-20T04:21:57.908Z,74.79
2018-07-20T04:23:05.372Z,75.09
2018-07-20T04:24:12.796Z,74.59
2018-07-20T04:25:20.213Z,74.99
2018-07-20T04:26:27.635Z,74.59
2018-07-20T04:27:35.091Z,74.49
2018-07-20T04:28:42.513Z,75.19
2018-07-20T04:29:49.921Z,74.99
2018-07-20T04:30:57.331Z,75.39
2018-07-20T04:32:04.767Z,75.19
2018-07-20T04:33:12.172Z,75.19
2018-07-20T04:34:19.576Z,75.09
2018-07-20T04:35:27.121Z,74.99
2018-07-20T04:36:34.528Z,75.26
2018-07-20T04:37:41.937Z,74.96
2018-07-20T04:38:49.397Z,75.39
2018-07-20T04:39:56.800Z,75.09
2018-07-20T04:41:04.217Z,74.99
2018-07-20T04:42:11.635Z,75.49
2018-07-20T04:43:19.037Z,75.39
2018-07-20T04:44:26.482Z,75.19
2018-07-20T04:45:33.888Z,74.89
2018-07-20T04:46:41.302Z,75.19
2018-07-20T04:47:48.706Z,75.09
2018-07-20T04:48:56.631Z,75.29
2018-07-20T04:50:04.076Z,75.39
2018-07-20T04:51:11.455Z,75.39
2018-07-20T04:52:18.859Z,75.39
2018-07-20T04:53:26.266Z,75.69
2018-07-20T04:54:33.716Z,75.69
2018-07-20T04:55:41.157Z,75.89
2018-07-20T04:56:48.579Z,75.59
2018-07-20T04:57:55.982Z,75.59
2018-07-20T04:59:03.391Z,75.59
2018-07-20T05:00:10.798Z,75.59
2018-07-20T05:01:18.240Z,75.59
2018-07-20T05:02:25.649Z,75.59
2018-07-20T05:03:33.067Z,75.59
2018-07-20T05:04:40.474Z,75.59
2018-07-20T05:05:47.951Z,75.39
2018-07-20T05:06:55.353Z,75.59
2018-07-20T05:08:02.778Z,75.59
2018-07-20T05:09:10.194Z,75.39
2018-07-20T05:10:17.637Z,75.39
2018-07-20T05:11:25.141Z,75.39
2018-07-20T05:12:32.504Z,75.49
2018-07-20T05:13:39.915Z,75.59
2018-07-20T05:14:47.332Z,76.09
2018-07-20T05:15:54.793Z,74.89
2018-07-20T05:17:02.205Z,74.89
2018-07-20T05:18:09.629Z,74.19
2018-07-20T05:19:17.049Z,74.59
2018-07-20T05:20:24.467Z,73.89
2018-07-20T05:21:31.922Z,74.99
2018-07-20T05:22:39.341Z,74.89
2018-07-20T05:23:46.748Z,75.19
2018-07-20T05:24:54.156Z,75.29
2018-07-20T05:26:01.614Z,75.59
2018-07-20T05:27:09.047Z,75.49
2018-07-20T05:28:16.465Z,75.39
2018-07-20T05:29:23.926Z,75.39
2018-07-20T05:30:31.347Z,75.59
2018-07-20T05:31:38.790Z,75.59
2018-07-20T05:32:46.240Z,75.49
2018-07-20T05:33:53.658Z,75.19
2018-07-20T05:35:01.103Z,75.39
2018-07-20T05:36:08.562Z,75.59
2018-07-20T05:37:15.984Z,75.49
2018-07-20T05:38:23.407Z,76.49
2018-07-20T05:39:30.831Z,76.49
2018-07-20T05:40:38.241Z,76.19
2018-07-20T05:41:45.684Z,76.33
2018-07-20T05:42:53.094Z,76.23
2018-07-20T05:44:00.560Z,76.23
2018-07-20T05:45:07.907Z,76.29
2018-07-20T05:46:15.616Z,76.43
2018-07-20T05:47:23.021Z,76.49
2018-07-20T05:48:30.426Z,76.69
2018-07-20T05:49:37.834Z,76.59
2018-07-20T05:50:45.242Z,76.59
2018-07-20T05:51:52.689Z,76.49
2018-07-20T05:53:00.098Z,75.69
2018-07-20T05:54:07.514Z,75.99
2018-07-20T05:55:14.974Z,75.99
2018-07-20T05:56:22.393Z,75.69
2018-07-20T05:57:29.824Z,75.99
2018-07-20T05:58:37.240Z,75.59
2018-07-20T05:59:44.660Z,75.69
2018-07-20T06:00:52.121Z,75.69
2018-07-20T06:01:59.544Z,75.89
2018-07-20T06:03:06.969Z,75.59
2018-07-20T06:04:14.393Z,75.69
2018-07-20T06:05:21.844Z,75.93
2018-07-20T06:06:29.261Z,75.89
2018-07-20T06:07:36.723Z,75.99
2018-07-20T06:08:44.166Z,75.79
2018-07-20T06:09:51.557Z,75.89
2018-07-20T06:10:58.977Z,75.69
2018-07-20T06:12:06.402Z,75.29
2018-07-20T06:13:13.858Z,75.79
2018-07-20T06:14:21.283Z,75.49
2018-07-20T06:15:29.105Z,75.39
2018-07-20T06:16:36.565Z,75.49
2018-07-20T06:17:43.966Z,75.49
2018-07-20T06:18:51.436Z,75.29
2018-07-20T06:19:58.825Z,75.49
2018-07-20T06:21:06.295Z,75.19
2018-07-20T06:22:13.711Z,75.19
2018-07-20T06:23:21.130Z,75.39
2018-07-20T06:24:28.553Z,75.49
2018-07-20T06:25:35.979Z,74.99
2018-07-20T06:26:43.607Z,74.79
2018-07-20T06:27:51.042Z,74.89
2018-07-20T06:28:58.481Z,74.99
2018-07-20T06:30:05.919Z,74.89
2018-07-20T06:31:13.350Z,74.89
2018-07-20T06:32:20.827Z,74.99
2018-07-20T06:33:28.263Z,74.89
2018-07-20T06:34:35.699Z,74.79
2018-07-20T06:35:43.135Z,74.99
2018-07-20T06:36:50.576Z,74.89
2018-07-20T06:37:58.044Z,74.99
2018-07-20T06:39:05.520Z,74.59
2018-07-20T06:40:12.939Z,73.99
2018-07-20T06:41:20.403Z,73.29
2018-07-20T06:42:27.837Z,74.49
2018-07-20T06:43:35.272Z,73.99
2018-07-20T06:44:42.708Z,74.79
2018-07-20T06:45:50.143Z,74.59
2018-07-20T06:46:58.108Z,74.79
2018-07-20T06:48:05.541Z,74.69
2018-07-20T06:49:12.965Z,75.59
2018-07-20T06:50:20.399Z,74.89
2018-07-20T06:51:27.825Z,75.09
2018-07-20T06:52:35.303Z,75.29
2018-07-20T06:53:42.729Z,74.79
2018-07-20T06:54:50.159Z,74.89
2018-07-20T06:55:57.593Z,75.19
2018-07-20T06:57:05.006Z,74.49
2018-07-20T06:58:12.473Z,74.39
2018-07-20T06:59:19.890Z,74.79
2018-07-20T07:00:27.311Z,74.85
2018-07-20T07:01:34.728Z,74.96
2018-07-20T07:02:42.144Z,74.09
2018-07-20T07:03:49.602Z,74.59
2018-07-20T07:04:57.018Z,74.09
2018-07-20T07:06:04.437Z,74.09
2018-07-20T07:07:11.858Z,74.05
2018-07-20T07:08:19.280Z,74.76
2018-07-20T07:09:26.776Z,74.09
2018-07-20T07:10:34.187Z,74.96
2018-07-20T07:11:41.610Z,74.19
2018-07-20T07:12:49.041Z,75.09
2018-07-20T07:13:56.492Z,74.16
2018-07-20T07:15:03.954Z,75.16
2018-07-20T07:16:11.399Z,75.16
2018-07-20T07:17:18.855Z,74.46
2018-07-20T07:18:26.278Z,74.46
2018-07-20T07:19:33.699Z,73.56
2018-07-20T07:20:41.165Z,74.46
2018-07-20T07:21:48.596Z,74.76
2018-07-20T07:22:56.023Z,74.46
2018-07-20T07:24:03.504Z,74.16
2018-07-20T07:25:10.956Z,74.16
2018-07-20T07:26:18.381Z,74.26
2018-07-20T07:27:25.809Z,74.16
2018-07-20T07:28:33.236Z,73.75
2018-07-20T07:29:40.701Z,73.16
2018-07-20T07:30:48.133Z,72.76
2018-07-20T07:31:55.559Z,72.66
2018-07-20T07:33:03.034Z,72.76
2018-07-20T07:34:10.468Z,73.06
2018-07-20T07:35:17.905Z,73.75
2018-07-20T07:36:25.342Z,73.66
2018-07-20T07:37:32.777Z,73.96
2018-07-20T07:38:40.249Z,73.75
2018-07-20T07:39:47.682Z,73.86
2018-07-20T07:40:55.105Z,73.56
2018-07-20T07:42:02.537Z,73.46
2018-07-20T07:43:09.947Z,73.46
2018-07-20T07:44:17.416Z,73.46
2018-07-20T07:45:24.846Z,73.56
2018-07-20T07:46:32.278Z,73.56
2018-07-20T07:47:39.699Z,73.46
2018-07-20T07:48:47.178Z,73.66
2018-07-20T07:49:54.613Z,73.46
2018-07-20T07:51:02.050Z,73.36
2018-07-20T07:52:09.486Z,73.52
2018-07-20T07:53:16.926Z,73.36
2018-07-20T07:54:24.388Z,73.66
2018-07-20T07:55:31.812Z,73.72
2018-07-20T07:56:39.250Z,73.52
2018-07-20T07:57:46.730Z,72.92
2018-07-20T07:58:54.173Z,74.02
2018-07-20T08:00:01.607Z,74.02
2018-07-20T08:01:09.039Z,73.32
2018-07-20T08:02:16.465Z,73.22
2018-07-20T08:03:23.941Z,73.32
2018-07-20T08:04:31.358Z,73.22
2018-07-20T08:05:38.771Z,72.52
2018-07-20T08:06:46.230Z,72.13
2018-07-20T08:07:53.649Z,71.72
2018-07-20T08:09:01.063Z,71.52
2018-07-20T08:10:08.565Z,71.79
2018-07-20T08:11:15.898Z,71.83
2018-07-20T08:12:23.353Z,72.02
2018-07-20T08:13:30.770Z,72.13
2018-07-20T08:14:38.220Z,72.13
2018-07-20T08:15:45.691Z,72.42
2018-07-20T08:16:53.067Z,71.99
2018-07-20T08:18:00.535Z,72.09
2018-07-20T08:19:07.953Z,72.39
2018-07-20T08:20:15.369Z,74.19
2018-07-20T08:21:22.793Z,73.49
2018-07-20T08:22:30.211Z,72.19
2018-07-20T08:23:37.674Z,71.19
2018-07-20T08:24:45.125Z,70.39
2018-07-20T08:25:52.339Z,70.69
2018-07-20T08:26:59.754Z,70.99
2018-07-20T08:28:07.176Z,71.39
2018-07-20T08:29:14.587Z,71.89
2018-07-20T08:30:22.050Z,72.29
2018-07-20T08:31:29.482Z,72.19
2018-07-20T08:32:36.919Z,71.95
2018-07-20T08:33:44.340Z,71.79
2018-07-20T08:34:51.762Z,72.09
2018-07-20T08:35:59.211Z,71.75
2018-07-20T08:37:06.677Z,71.59
2018-07-20T08:38:14.099Z,70.99
2018-07-20T08:39:21.548Z,70.39
2018-07-20T08:40:28.995Z,70.46
2018-07-20T08:41:36.440Z,70.76
2018-07-20T08:42:43.903Z,71.45
2018-07-20T08:43:51.387Z,72.05
2018-07-20T08:44:58.810Z,71.86
2018-07-20T08:46:06.245Z,72.16
2018-07-20T08:47:13.672Z,71.66
2018-07-20T08:47:59.517Z,71.95
2018-07-20T08:56:11.528Z,70.53
2018-07-20T08:57:19.015Z,71.09
2018-07-20T08:58:26.516Z,71.42
2018-07-20T08:59:33.920Z,71.92
2018-07-20T09:00:41.392Z,71.32
2018-07-20T09:01:48.843Z,70.62
2018-07-20T09:02:56.238Z,70.42
2018-07-20T09:04:03.671Z,70.53
2018-07-20T09:05:11.065Z,70.32
2018-07-20T09:06:18.480Z,70.39
2018-07-20T09:07:25.880Z,71.39
2018-07-20T09:08:33.319Z,71.09
2018-07-20T09:09:40.746Z,70.59
2018-07-20T09:10:48.134Z,69.99
2018-07-20T09:11:55.556Z,70.39
2018-07-20T09:13:02.967Z,70.39
2018-07-20T09:14:10.408Z,70.89
2018-07-20T09:15:17.784Z,70.49
2018-07-20T09:16:25.192Z,70.29
2018-07-20T09:17:32.583Z,69.79
2018-07-20T09:18:39.971Z,69.89
2018-07-20T09:19:47.370Z,70.09
2018-07-20T09:20:54.871Z,70.59
2018-07-20T09:22:02.233Z,70.49
2018-07-20T09:23:09.641Z,69.66
2018-07-20T09:24:17.071Z,69.16
2018-07-20T09:25:24.493Z,68.66
2018-07-20T09:26:57.931Z,69.36
2018-07-20T09:28:05.490Z,69.76
2018-07-20T09:29:12.929Z,70.06
2018-07-20T09:30:20.369Z,69.23
2018-07-20T09:31:27.861Z,68.63
2018-07-20T09:32:35.306Z,67.86
2018-07-20T09:33:42.763Z,68.33
2018-07-20T09:34:50.205Z,68.33
2018-07-20T09:35:57.666Z,69.13
2018-07-20T09:37:05.234Z,69.02
2018-07-20T09:38:12.654Z,67.73
2018-07-20T09:39:20.084Z,67.57
2018-07-20T09:40:27.562Z,66.34
2018-07-20T09:41:34.992Z,67.17
2018-07-20T09:42:42.454Z,67.27
2018-07-20T09:43:49.962Z,68.07
2018-07-20T09:44:57.385Z,68.07
2018-07-20T09:46:05.609Z,67.96
2018-07-20T09:47:13.071Z,67.57
2018-07-20T09:48:20.602Z,68.07
2018-07-20T09:49:28.026Z,67.66
2018-07-20T09:50:35.441Z,67.60
2018-07-20T09:51:43.047Z,68.99
2018-07-20T09:52:50.612Z,69.16
2018-07-20T09:53:58.025Z,67.80
2018-07-20T09:55:05.510Z,68.10
2018-07-20T09:56:12.932Z,68.10
2018-07-20T09:57:20.463Z,67.50
2018-07-20T09:58:27.886Z,67.70
2018-07-20T09:59:35.472Z,68.10
2018-07-20T10:00:42.723Z,68.40
2018-07-20T10:01:50.194Z,68.56
2018-07-20T10:02:57.613Z,68.37
2018-07-20T10:04:05.028Z,67.86
2018-07-20T10:05:12.447Z,67.36
2018-07-20T10:06:19.884Z,67.86
2018-07-20T10:07:27.334Z,68.07
2018-07-20T10:08:34.750Z,68.66
2018-07-20T10:09:42.163Z,68.37
2018-07-20T10:10:49.581Z,68.86
2018-07-20T10:11:56.988Z,68.76
2018-07-20T10:13:04.436Z,68.26
2018-07-20T10:14:11.852Z,68.26
2018-07-20T10:15:19.046Z,67.77
2018-07-20T10:16:26.453Z,67.96
2018-07-20T10:17:33.852Z,67.86
2018-07-20T10:18:41.300Z,67.77
2018-07-20T10:19:48.719Z,67.27
2018-07-20T10:20:56.162Z,67.07
2018-07-20T10:22:03.602Z,66.87
2018-07-20T10:23:11.103Z,66.67
2018-07-20T10:24:18.511Z,67.77
2018-07-20T10:25:26.009Z,67.07
2018-07-20T10:26:33.422Z,67.27
2018-07-20T10:27:40.886Z,66.64
2018-07-20T10:28:48.359Z,66.14
2018-07-20T10:29:55.864Z,66.94
2018-07-20T10:31:03.288Z,66.34
2018-07-20T10:32:10.748Z,66.74
2018-07-20T10:33:18.220Z,66.53
2018-07-20T10:34:25.697Z,66.74
2018-07-20T10:35:15.235Z,66.53
2018-07-20T10:36:22.667Z,66.83
2018-07-20T10:37:30.103Z,66.74
2018-07-20T10:38:37.605Z,67.33
2018-07-20T10:39:45.060Z,67.43
2018-07-20T10:40:52.522Z,66.94
2018-07-20T10:41:59.950Z,66.61
2018-07-20T10:43:07.423Z,66.24
2018-07-20T10:44:14.848Z,66.14
2018-07-20T10:45:22.279Z,65.74
2018-07-20T10:46:29.820Z,65.41
2018-07-20T10:47:37.284Z,65.44
2018-07-20T10:48:44.825Z,64.72
2018-07-20T10:49:52.840Z,64.04
2018-07-20T10:51:00.413Z,63.65
2018-07-20T10:52:08.001Z,63.75
2018-07-20T10:53:15.525Z,65.05
2018-07-20T10:54:22.974Z,65.11
2018-07-20T10:55:30.449Z,63.72
2018-07-20T10:56:37.907Z,63.42
2018-07-20T10:57:45.424Z,63.42
2018-07-20T10:58:52.850Z,63.02
2018-07-20T11:00:00.318Z,63.02
2018-07-20T11:01:07.848Z,63.92
2018-07-20T11:02:15.316Z,63.82
2018-07-20T11:03:22.758Z,64.72
2018-07-20T11:04:30.191Z,63.72
2018-07-20T11:05:37.602Z,63.82
2018-07-20T11:06:45.068Z,63.98
2018-07-20T11:07:52.520Z,65.41
2018-07-20T11:08:59.904Z,65.81
2018-07-20T11:10:07.332Z,65.88
2018-07-20T11:11:14.798Z,66.08
2018-07-20T11:12:22.241Z,65.98
2018-07-20T11:13:29.668Z,65.38
2018-07-20T11:14:37.133Z,65.58
2018-07-20T11:15:48.297Z,64.88
2018-07-20T11:16:17.209Z,65.18
2018-07-20T11:17:24.712Z,65.18
2018-07-20T11:18:32.143Z,64.75
2018-07-20T11:19:39.604Z,64.65
2018-07-20T11:20:47.029Z,63.98
2018-07-20T11:21:54.454Z,63.79
2018-07-20T11:23:01.977Z,64.06
2018-07-20T11:24:09.416Z,64.09
2018-07-20T11:25:16.865Z,63.79
2018-07-20T11:26:24.333Z,63.89
2018-07-20T11:27:31.767Z,64.39
2018-07-20T11:28:39.201Z,64.69
2018-07-20T11:29:46.674Z,63.79
2018-07-20T11:30:12.161Z,64.18
2018-07-20T11:31:11.363Z,63.79
2018-07-20T11:32:10.332Z,64.28
2018-07-20T11:33:17.840Z,64.58
2018-07-20T11:34:25.425Z,64.18
2018-07-20T11:35:32.835Z,63.98
2018-07-20T11:36:40.244Z,63.49
2018-07-20T11:37:47.654Z,64.09
2018-07-20T11:38:55.048Z,63.89
2018-07-20T11:40:02.481Z,63.89
2018-07-20T11:41:09.892Z,63.59
2018-07-20T11:42:17.288Z,63.49
2018-07-20T11:43:24.694Z,63.49
2018-07-20T11:44:32.130Z,64.09
2018-07-20T11:45:39.612Z,64.18
2018-07-20T11:46:47.010Z,64.18
2018-07-20T11:47:54.425Z,63.98
2018-07-20T11:49:01.830Z,64.09
2018-07-20T11:50:09.352Z,64.18
2018-07-20T11:51:16.788Z,63.79
2018-07-20T11:52:24.276Z,64.18
2018-07-20T11:53:31.705Z,64.18
2018-07-20T11:54:39.151Z,63.79
2018-07-20T11:55:46.660Z,64.69
2018-07-20T11:56:54.051Z,64.88
2018-07-20T11:58:01.468Z,64.88
2018-07-20T11:59:08.897Z,64.88
2018-07-20T12:00:16.319Z,64.88
2018-07-20T12:01:23.820Z,63.98
2018-07-20T12:02:31.212Z,63.89
2018-07-20T12:03:38.625Z,63.89
2018-07-20T12:04:46.051Z,63.82
2018-07-20T12:05:53.471Z,64.69
2018-07-20T12:07:00.924Z,63.89
2018-07-20T12:08:08.331Z,63.92
2018-07-20T12:09:15.756Z,64.48
2018-07-20T12:10:23.199Z,64.78
2018-07-20T12:11:30.632Z,65.21
2018-07-20T12:12:38.054Z,65.01
2018-07-20T12:13:45.457Z,64.81
2018-07-20T12:14:52.859Z,63.92
2018-07-20T12:16:00.273Z,63.92
2018-07-20T12:17:08.053Z,64.12
2018-07-20T12:18:15.497Z,65.61
2018-07-20T12:19:22.903Z,66.11
2018-07-20T12:20:30.377Z,66.11
2018-07-20T12:21:37.782Z,65.41
2018-07-20T12:22:47.240Z,64.72
2018-07-20T12:23:54.639Z,65.21
2018-07-20T12:25:02.083Z,65.61
2018-07-20T12:26:09.488Z,65.91
2018-07-20T12:27:16.890Z,65.61
2018-07-20T12:29:19.009Z,66.08
2018-07-20T12:30:26.523Z,66.41
2018-07-20T12:31:34.045Z,65.68
2018-07-20T12:32:41.460Z,66.08
2018-07-20T12:33:48.883Z,65.88
2018-07-20T12:34:56.335Z,65.68
2018-07-20T12:36:03.789Z,65.58
2018-07-20T12:37:11.208Z,65.31
2018-07-20T12:38:18.680Z,65.41
2018-07-20T12:39:26.113Z,65.11
2018-07-20T12:40:33.559Z,65.01
2018-07-20T12:41:41.037Z,63.92
2018-07-20T12:42:48.317Z,64.12
2018-07-20T12:43:55.775Z,63.52
2018-07-20T12:45:03.294Z,64.72
2018-07-20T12:46:10.719Z,65.21
2018-07-20T12:47:18.172Z,65.41
2018-07-20T12:48:25.590Z,63.82
2018-07-20T12:49:33.102Z,64.01
2018-07-20T12:50:40.523Z,64.22
2018-07-20T12:51:47.952Z,63.82
2018-07-20T12:52:55.422Z,64.12
2018-07-20T12:54:02.906Z,63.92
2018-07-20T12:55:10.361Z,64.12
2018-07-20T12:56:17.827Z,63.92
2018-07-20T12:57:25.275Z,63.82
2018-07-20T12:58:32.805Z,63.92
2018-07-20T12:59:40.171Z,63.72
2018-07-20T13:00:47.608Z,63.52
2018-07-20T13:01:55.258Z,63.52
2018-07-20T13:03:02.688Z,63.02
2018-07-20T13:04:10.159Z,63.72
2018-07-20T13:05:17.547Z,63.82
2018-07-20T13:06:24.979Z,64.12
2018-07-20T13:07:32.451Z,63.02
2018-07-20T13:08:39.884Z,63.12
2018-07-20T13:09:47.318Z,63.32
2018-07-20T13:10:54.752Z,63.32
2018-07-20T13:12:02.314Z,63.22
2018-07-20T13:13:09.672Z,63.42
2018-07-20T13:14:17.095Z,63.22
2018-07-20T13:15:24.524Z,62.92
2018-07-20T13:16:31.996Z,63.02
2018-07-20T13:17:39.500Z,62.82
2018-07-20T13:18:46.923Z,62.52
2018-07-20T13:19:54.378Z,62.32
2018-07-20T13:21:01.809Z,62.02
2018-07-20T13:22:09.308Z,63.12
2018-07-20T13:23:16.775Z,64.12
2018-07-20T13:24:24.233Z,64.01
2018-07-20T13:25:31.646Z,62.62
2018-07-20T13:26:39.103Z,62.55
2018-07-20T13:27:46.550Z,62.95
2018-07-20T13:28:53.997Z,63.15
2018-07-20T13:30:01.423Z,63.85
2018-07-20T13:31:08.641Z,63.72
2018-07-20T13:32:16.057Z,63.82
2018-07-20T13:33:23.507Z,64.01
2018-07-20T13:34:30.960Z,63.95
2018-07-20T13:35:38.384Z,63.75
2018-07-20T13:36:45.804Z,63.85
2018-07-20T13:37:53.266Z,63.62
2018-07-20T13:39:00.684Z,63.82
2018-07-20T13:40:08.103Z,64.31
2018-07-20T13:41:15.563Z,64.12
2018-07-20T13:42:22.997Z,64.12
2018-07-20T13:43:30.426Z,63.92
2018-07-20T13:44:37.863Z,63.82
2018-07-20T13:45:45.331Z,63.42
2018-07-20T13:46:52.753Z,63.82
2018-07-20T13:48:00.185Z,63.42
2018-07-20T13:49:07.598Z,63.22
2018-07-20T13:50:15.042Z,63.22
2018-07-20T13:51:22.494Z,63.32
2018-07-20T13:52:29.969Z,63.32
2018-07-20T13:53:37.430Z,63.72
2018-07-20T13:54:44.933Z,63.32
2018-07-20T13:55:52.351Z,63.52
2018-07-20T13:56:59.807Z,63.12
2018-07-20T13:58:07.227Z,63.42
2018-07-20T13:59:19.274Z,66.50
2018-07-20T14:00:26.730Z,66.20
2018-07-20T14:01:34.167Z,65.54
2018-07-20T14:02:41.572Z,65.74
2018-07-20T14:03:49.056Z,65.64
2018-07-20T14:04:56.479Z,65.64
2018-07-20T14:06:03.906Z,66.64
2018-07-20T14:07:11.319Z,66.77
2018-07-20T14:08:18.794Z,65.97
2018-07-20T14:09:26.337Z,65.97
2018-07-20T14:10:33.797Z,66.57
2018-07-20T14:11:41.518Z,67.57
2018-07-20T14:12:48.975Z,67.66
2018-07-20T14:13:56.406Z,66.97
2018-07-20T14:15:03.923Z,66.70
2018-07-20T14:16:11.351Z,70.16
2018-07-20T14:17:18.801Z,67.07
2018-07-20T14:18:26.245Z,66.04
2018-07-20T14:19:33.776Z,66.04
2018-07-20T14:20:41.192Z,65.41
2018-07-20T14:21:48.697Z,64.91
2018-07-20T14:22:56.114Z,64.58
2018-07-20T14:24:03.642Z,63.98
2018-07-20T14:25:11.075Z,64.09
2018-07-20T14:26:18.536Z,64.09
2018-07-20T14:27:25.960Z,63.89
2018-07-20T14:28:33.381Z,63.46
2018-07-20T14:29:40.801Z,63.69
2018-07-20T14:30:48.219Z,63.76
2018-07-20T14:31:55.753Z,63.69
2018-07-20T14:33:03.086Z,63.39
2018-07-20T14:34:10.502Z,63.89